Time;durP1;ratioP1;P1;durP2;ratioP2;P2;SDS_P1;SDS_P2;PMS_P1;PMS_P2;Temp;Humidity;BMP_temperature;BMP_pressure;BME280_temperature;BME280_humidity;BME280_pressure;Samples;Min_cycle;Max_cycle;Signal;HPM_P1;HPM_P2
2022/03/02 12:53:10;;;;;;;5.55;4.85;;;8.40;99.90;;;;;;5070736;28;20671;-76
2022/03/02 12:55:36;;;;;;;5.65;5.25;;;8.60;99.90;;;;;;5070752;28;20199;-76
2022/03/02 12:58:02;;;;;;;5.00;4.60;;;8.70;99.90;;;;;;5070594;28;20580;-76
2022/03/02 13:00:28;;;;;;;6.18;5.18;;;8.80;99.90;;;;;;5070576;28;20164;-76
2022/03/02 13:02:56;;;;;;;5.85;5.35;;;8.90;99.90;;;;;;5070516;28;20599;-76
2022/03/02 13:05:40;;;;;;;5.72;5.32;;;9.00;99.90;;;;;;5070459;28;20263;-76
2022/03/02 13:08:37;;;;;;;5.10;4.70;;;9.20;99.90;;;;;;5069199;28;20238;-76
2022/03/02 13:11:04;;;;;;;7.20;5.47;;;9.30;99.90;;;;;;5050323;28;20192;-76
2022/03/02 13:13:40;;;;;;;5.88;5.38;;;9.40;99.90;;;;;;5050376;28;20514;-76
2022/03/02 13:16:20;;;;;;;6.43;5.82;;;9.50;99.90;;;;;;5050314;28;20165;-76
2022/03/02 13:18:47;;;;;;;5.78;5.25;;;9.70;99.90;;;;;;5050244;28;20189;-76
2022/03/02 13:21:14;;;;;;;5.68;5.28;;;9.80;99.90;;;;;;5050262;28;20624;-77
2022/03/02 13:23:42;;;;;;;6.45;5.90;;;9.90;99.90;;;;;;5050145;28;20174;-76
2022/03/02 13:26:12;;;;;;;5.10;4.80;;;9.90;99.90;;;;;;5050113;28;20173;-76
2022/03/02 13:29:08;;;;;;;6.25;5.75;;;10.10;99.90;;;;;;5050060;28;20706;-76
2022/03/02 13:31:52;;;;;;;5.82;5.32;;;10.40;99.90;;;;;;5049953;28;20201;-76
2022/03/02 13:34:19;;;;;;;6.03;5.30;;;10.50;99.90;;;;;;5048883;28;20166;-77
2022/03/02 13:36:57;;;;;;;5.57;5.07;;;10.60;99.90;;;;;;5049972;28;20158;-76
2022/03/02 13:39:24;;;;;;;5.50;5.00;;;10.70;99.90;;;;;;5049929;28;20173;-76
2022/03/02 13:41:54;;;;;;;6.57;5.90;;;10.90;99.90;;;;;;5049767;28;20204;-77
2022/03/02 13:44:39;;;;;;;5.65;5.25;;;11.00;99.90;;;;;;5049822;28;20173;-77
2022/03/02 13:47:30;;;;;;;7.18;6.07;;;11.20;99.90;;;;;;5049749;28;20168;-75
2022/03/02 13:49:58;;;;;;;5.45;5.05;;;11.20;99.90;;;;;;5048334;28;20226;-76
2022/03/02 13:52:26;;;;;;;6.18;5.70;;;11.40;99.90;;;;;;5049343;28;20217;-76
2022/03/02 13:54:53;;;;;;;6.57;6.10;;;11.40;99.90;;;;;;5049562;28;20176;-76
2022/03/02 13:57:23;;;;;;;5.85;5.35;;;11.60;99.90;;;;;;5049519;28;20215;-76
2022/03/02 13:59:49;;;;;;;17.27;6.93;;;11.60;99.90;;;;;;5049514;28;20188;-76
2022/03/02 14:02:15;;;;;;;5.50;5.10;;;11.80;99.90;;;;;;5049206;28;20169;-76
2022/03/02 14:04:47;;;;;;;6.13;5.63;;;11.90;99.90;;;;;;5035498;28;20541;-76
2022/03/02 14:07:13;;;;;;;6.90;6.05;;;12.00;99.90;;;;;;5036325;28;20181;-76
2022/03/02 14:09:41;;;;;;;5.38;5.07;;;12.10;99.90;;;;;;5036143;28;20193;-76
2022/03/02 14:12:07;;;;;;;5.70;5.30;;;12.10;99.90;;;;;;5034790;28;20288;-76
2022/03/02 14:14:39;;;;;;;6.00;5.60;;;12.30;99.90;;;;;;5035956;28;20181;-76
2022/03/02 14:17:10;;;;;;;6.38;5.28;;;12.40;99.90;;;;;;5035919;28;20188;-76
2022/03/02 14:19:49;;;;;;;5.50;5.00;;;12.40;99.90;;;;;;5035909;28;20162;-76
2022/03/02 14:22:21;;;;;;;6.53;5.38;;;12.50;99.90;;;;;;5035818;28;20574;-76
2022/03/02 14:24:49;;;;;;;5.32;5.00;;;12.50;99.90;;;;;;5035789;28;20558;-76
2022/03/02 14:27:23;;;;;;;5.70;5.30;;;12.50;99.90;;;;;;5035696;28;20174;-76
2022/03/02 14:30:02;;;;;;;6.53;5.85;;;12.60;99.90;;;;;;5035606;28;20173;-76
2022/03/02 14:32:43;;;;;;;5.57;5.18;;;12.70;99.90;;;;;;5035606;28;20193;-76
2022/03/02 14:35:20;;;;;;;5.65;5.25;;;12.80;99.90;;;;;;5035546;28;20498;-76
2022/03/02 14:37:48;;;;;;;5.70;5.28;;;12.90;99.90;;;;;;5034349;28;20166;-77
2022/03/02 14:40:28;;;;;;;5.47;5.07;;;13.00;99.90;;;;;;5035444;28;20178;-76
2022/03/02 14:42:58;;;;;;;7.93;6.05;;;13.00;99.90;;;;;;5035414;28;20208;-76
2022/03/02 14:45:32;;;;;;;5.93;5.43;;;13.10;99.90;;;;;;5035232;28;20174;-77
2022/03/02 14:48:03;;;;;;;5.43;5.05;;;13.10;99.90;;;;;;5035332;28;20173;-77
2022/03/02 14:50:47;;;;;;;6.22;5.63;;;13.20;99.90;;;;;;5035248;28;20162;-77
2022/03/02 14:53:24;;;;;;;6.40;5.15;;;13.20;99.90;;;;;;5035236;28;20185;-77
2022/03/02 14:55:49;;;;;;;6.63;5.97;;;13.30;99.90;;;;;;5033945;28;20312;-77
2022/03/02 14:58:19;;;;;;;5.88;5.47;;;13.30;99.90;;;;;;5035154;28;20256;-77
2022/03/02 15:00:57;;;;;;;6.40;5.82;;;13.40;99.90;;;;;;5035020;28;20181;-77
2022/03/02 15:03:25;;;;;;;6.80;6.18;;;13.40;99.90;;;;;;5035017;28;20510;-77
2022/03/02 15:05:53;;;;;;;5.82;5.30;;;13.40;99.90;;;;;;5035198;28;20529;-77
2022/03/02 15:08:28;;;;;;;6.55;4.88;;;13.20;99.90;;;;;;5035055;28;20658;-77
2022/03/02 15:10:54;;;;;;;5.45;5.05;;;13.10;99.30;;;;;;5034940;28;20176;-77
2022/03/02 15:16:12;;;;;;;6.05;5.55;;;13.10;98.70;;;;;;5033898;28;20184;-77
2022/03/02 15:18:37;;;;;;;5.07;4.78;;;13.20;99.50;;;;;;5034800;28;20176;-77
2022/03/02 15:21:04;;;;;;;6.53;5.93;;;13.60;98.10;;;;;;5034715;28;20191;-77
2022/03/02 15:23:30;;;;;;;6.15;5.55;;;13.20;95.70;;;;;;5034720;28;20170;-77
2022/03/02 15:25:56;;;;;;;5.55;5.15;;;13.30;97.80;;;;;;5034611;28;20165;-77
2022/03/02 15:28:22;;;;;;;6.80;6.30;;;13.30;96.10;;;;;;5034606;28;20173;-77
2022/03/02 15:30:47;;;;;;;6.53;6.03;;;13.30;97.10;;;;;;5034505;28;20521;-77
2022/03/02 15:33:15;;;;;;;5.60;5.25;;;13.30;97.20;;;;;;5034488;28;20207;-77
2022/03/02 15:35:41;;;;;;;6.32;5.82;;;13.30;97.20;;;;;;5034457;28;20200;-77
2022/03/02 15:38:17;;;;;;;7.65;5.80;;;13.30;97.70;;;;;;5034401;28;20157;-77
2022/03/02 15:40:44;;;;;;;5.97;5.60;;;13.30;97.40;;;;;;5033058;28;20180;-77
2022/03/02 15:43:15;;;;;;;5.65;5.25;;;13.20;96.80;;;;;;5034282;28;20197;-77
2022/03/02 15:45:43;;;;;;;5.45;5.05;;;13.20;96.00;;;;;;5034248;28;20177;-77
2022/03/02 15:48:22;;;;;;;5.38;5.03;;;13.10;95.70;;;;;;5034191;28;20162;-77
2022/03/02 15:50:49;;;;;;;4.95;4.55;;;13.00;94.20;;;;;;5033924;28;20190;-78
2022/03/02 15:53:27;;;;;;;5.47;4.97;;;13.00;93.00;;;;;;5034109;28;20212;-77
2022/03/02 15:56:06;;;;;;;5.57;5.18;;;12.80;92.80;;;;;;5034030;28;20635;-77
2022/03/02 15:58:47;;;;;;;5.28;4.85;;;12.70;92.30;;;;;;5034053;28;20272;-77
2022/03/02 16:01:25;;;;;;;5.10;4.80;;;12.70;92.80;;;;;;5033954;28;20193;-77
2022/03/02 16:04:02;;;;;;;9.90;6.85;;;12.70;94.00;;;;;;5033901;28;20669;-77
2022/03/02 16:06:28;;;;;;;7.90;7.20;;;12.70;97.30;;;;;;5032834;28;20259;-77
2022/03/02 16:08:54;;;;;;;8.70;7.80;;;12.60;99.90;;;;;;5032503;28;20213;-77
2022/03/02 16:11:22;;;;;;;9.73;8.15;;;12.50;99.90;;;;;;5033794;28;20170;-77
2022/03/02 16:13:58;;;;;;;8.43;7.60;;;12.30;99.90;;;;;;5033720;28;20173;-77
2022/03/02 16:16:26;;;;;;;9.73;8.30;;;12.20;99.90;;;;;;5033670;28;20176;-77
2022/03/02 16:19:05;;;;;;;8.52;7.53;;;12.10;99.90;;;;;;5033681;28;20166;-77
2022/03/02 16:21:43;;;;;;;8.52;7.85;;;12.00;99.90;;;;;;5033660;28;20201;-76
2022/03/02 16:24:31;;;;;;;14.20;8.20;;;11.80;99.90;;;;;;5033540;28;20646;-76
2022/03/02 16:27:26;;;;;;;10.80;8.73;;;11.60;99.90;;;;;;5033322;28;20300;-76
2022/03/02 16:29:55;;;;;;;10.30;8.13;;;11.40;99.90;;;;;;5033489;28;20204;-77
2022/03/02 16:32:22;;;;;;;10.98;8.35;;;11.00;99.90;;;;;;5033528;28;20174;-77
2022/03/02 16:34:48;;;;;;;9.95;8.95;;;10.90;99.90;;;;;;5032125;28;20227;-77
2022/03/02 16:37:16;;;;;;;9.05;7.90;;;10.70;99.90;;;;;;5033454;28;20646;-77
2022/03/02 16:39:52;;;;;;;9.93;8.40;;;10.80;99.90;;;;;;5033376;28;20178;-77
2022/03/02 16:42:18;;;;;;;9.85;8.77;;;10.20;99.90;;;;;;5033319;28;20189;-78
2022/03/02 16:44:44;;;;;;;9.60;8.52;;;10.30;99.90;;;;;;5033340;28;20173;-78
2022/03/02 16:47:14;;;;;;;12.35;8.30;;;9.80;99.90;;;;;;5033263;28;20299;-78
2022/03/02 16:49:45;;;;;;;11.10;8.80;;;9.70;99.90;;;;;;5032080;28;20291;-78
2022/03/02 16:52:11;;;;;;;12.07;8.15;;;9.60;99.90;;;;;;5033120;28;20702;-77
2022/03/02 16:54:37;;;;;;;9.23;8.10;;;9.40;99.90;;;;;;5033267;28;20176;-77
2022/03/02 16:57:02;;;;;;;11.82;7.97;;;9.40;99.90;;;;;;5032247;28;20173;-77
2022/03/02 16:59:28;;;;;;;8.75;7.85;;;9.20;99.90;;;;;;5033232;28;20189;-80
2022/03/02 17:01:53;;;;;;;13.20;8.70;;;9.00;99.90;;;;;;5033020;28;20196;-83
2022/03/02 17:04:19;;;;;;;10.50;8.32;;;8.80;99.90;;;;;;5031460;28;20243;-80
2022/03/02 17:06:48;;;;;;;10.55;8.85;;;8.80;99.90;;;;;;5032914;28;20193;-78
2022/03/02 17:09:18;;;;;;;12.90;8.60;;;8.50;99.90;;;;;;5033051;28;20162;-80
2022/03/02 17:11:45;;;;;;;12.10;9.07;;;8.40;99.90;;;;;;5033204;28;20181;-81
2022/03/02 17:14:11;;;;;;;11.23;9.10;;;8.20;99.90;;;;;;5033042;28;20224;-80
